Time;durP1;ratioP1;P1;durP2;ratioP2;P2;SDS_P1;SDS_P2;PMS_P1;PMS_P2;Temp;Humidity;BMP_temperature;BMP_pressure;BME280_temperature;BME280_humidity;BME280_pressure;Samples;Min_cycle;Max_cycle;Signal;HPM_P1;HPM_P2
2022/12/14 00:02:20;;;;;;;68.50;39.83;;;;;;;-0.77;100.00;100818.00;5003452;28;20069;-76
2022/12/14 00:04:45;;;;;;;74.38;38.92;;;;;;;-0.53;100.00;100804.59;5000343;28;20101;-75
2022/12/14 00:07:10;;;;;;;74.63;41.88;;;;;;;-0.62;100.00;100788.69;4999765;28;20050;-76
2022/12/14 00:09:36;;;;;;;81.57;44.70;;;;;;;-0.49;100.00;100793.66;5003670;28;20036;-76
2022/12/14 00:12:01;;;;;;;77.85;44.42;;;;;;;-1.31;100.00;100657.28;5004187;28;20044;-75
2022/12/14 00:14:27;;;;;;;92.28;51.75;;;;;;;-1.50;100.00;100684.63;5002578;28;20508;-76
2022/12/14 00:16:52;;;;;;;101.90;46.05;;;;;;;-1.46;100.00;100651.31;5002678;28;20061;-77
2022/12/14 00:19:18;;;;;;;84.38;49.00;;;;;;;-1.59;100.00;100714.09;5005969;28;20049;-76
2022/12/14 00:21:43;;;;;;;81.95;42.88;;;;;;;-1.19;100.00;100804.63;5006200;28;20049;-76
2022/12/14 00:24:09;;;;;;;105.00;46.58;;;;;;;-0.74;100.00;100827.59;5001886;28;20029;-75
2022/12/14 00:26:34;;;;;;;76.07;42.00;;;;;;;-1.24;100.00;100775.19;5002183;28;20037;-77
2022/12/14 00:29:01;;;;;;;90.00;45.40;;;;;;;-1.40;100.00;100679.97;5001769;28;20042;-77
2022/12/14 00:31:27;;;;;;;80.68;41.33;;;;;;;-1.36;100.00;100666.41;5001255;28;20046;-77
2022/12/14 00:33:52;;;;;;;74.68;40.45;;;;;;;-1.36;100.00;100684.44;5004013;28;20056;-77
2022/12/14 00:36:18;;;;;;;68.88;36.53;;;;;;;-0.87;100.00;100844.06;5004177;28;20046;-77
2022/12/14 00:38:44;;;;;;;77.30;36.92;;;;;;;-1.49;100.00;100699.25;5004872;28;20021;-77
2022/12/14 00:41:10;;;;;;;62.88;35.58;;;;;;;-0.88;100.00;100767.63;5001932;28;20501;-77
2022/12/14 00:43:35;;;;;;;56.30;35.13;;;;;;;-1.38;100.00;100770.97;5005095;28;20112;-77
2022/12/14 00:46:01;;;;;;;60.55;33.97;;;;;;;-2.08;100.00;100735.47;4999322;28;20141;-77
2022/12/14 00:48:27;;;;;;;55.63;35.63;;;;;;;-1.99;100.00;100801.94;5000211;28;20046;-76
2022/12/14 00:50:54;;;;;;;62.85;34.25;;;;;;;-1.92;100.00;100747.47;5003148;28;20504;-76
2022/12/14 00:53:20;;;;;;;66.53;35.38;;;;;;;-2.41;100.00;100701.03;5004749;28;20217;-76
2022/12/14 00:55:47;;;;;;;56.85;32.33;;;;;;;-2.29;100.00;100735.16;4999160;28;20060;-77
2022/12/14 00:58:14;;;;;;;64.30;31.55;;;;;;;-1.33;100.00;100872.50;4996381;28;20227;-77
2022/12/14 01:00:40;;;;;;;56.35;32.47;;;;;;;-1.99;100.00;100696.50;4999931;28;20050;-77
2022/12/14 01:03:06;;;;;;;56.33;32.40;;;;;;;-0.97;100.00;100849.56;5003822;28;20488;-79
2022/12/14 01:05:35;;;;;;;93.78;33.85;;;;;;;-1.77;100.00;100690.88;5003272;28;20129;-76
2022/12/14 01:08:00;;;;;;;61.35;34.78;;;;;;;-1.71;100.00;100697.22;5000620;28;20546;-75
2022/12/14 01:10:26;;;;;;;64.80;33.03;;;;;;;-1.40;100.00;100731.44;5000503;28;20049;-76
2022/12/14 01:12:52;;;;;;;78.65;32.63;;;;;;;-1.66;100.00;100670.84;4999743;28;20177;-79
2022/12/14 01:15:17;;;;;;;57.65;33.50;;;;;;;-0.85;100.00;100812.44;4997184;28;20367;-76
2022/12/14 01:17:44;;;;;;;72.70;36.20;;;;;;;-0.90;100.00;100813.00;5015008;28;20061;-77
2022/12/14 01:20:10;;;;;;;68.07;35.90;;;;;;;-1.78;100.00;100678.78;4998706;28;20061;-76
2022/12/14 01:22:36;;;;;;;71.55;39.05;;;;;;;-0.95;100.00;100810.19;4997624;28;20046;-75
2022/12/14 01:25:03;;;;;;;52.63;32.83;;;;;;;-1.07;100.00;100812.13;4996079;28;20485;-75
2022/12/14 01:27:29;;;;;;;62.13;33.45;;;;;;;-1.30;100.00;100742.28;5002977;28;20030;-75
2022/12/14 01:29:54;;;;;;;71.32;39.00;;;;;;;-1.56;100.00;100685.97;5001103;28;20095;-74
2022/12/14 01:32:19;;;;;;;62.47;36.00;;;;;;;-1.63;100.00;100683.88;4999472;28;20046;-74
2022/12/14 01:34:47;;;;;;;70.97;37.55;;;;;;;-1.03;100.00;100808.91;5005061;28;20054;-75
2022/12/14 01:37:12;;;;;;;50.30;29.17;;;;;;;-1.42;100.00;100793.09;5030038;28;20393;-75
2022/12/14 01:39:38;;;;;;;51.50;33.22;;;;;;;-1.24;100.00;100836.06;5006403;28;20061;-74
2022/12/14 01:42:10;;;;;;;46.78;30.48;;;;;;;-1.00;100.00;100842.56;5005853;28;20037;-74
2022/12/14 01:44:39;;;;;;;52.23;32.87;;;;;;;-0.72;100.00;100844.00;5003590;28;20120;-75
2022/12/14 01:47:13;;;;;;;54.97;32.60;;;;;;;-0.83;100.00;100799.66;5002116;28;20469;-76
2022/12/14 01:49:49;;;;;;;54.45;33.67;;;;;;;-1.39;100.00;100710.91;5003999;28;20416;-76
2022/12/14 01:52:37;;;;;;;56.45;31.65;;;;;;;-1.23;100.00;100805.28;5002885;28;20049;-77
2022/12/14 01:55:21;;;;;;;59.15;34.28;;;;;;;-1.51;100.00;100852.66;5001430;28;20591;-78
2022/12/14 01:58:17;;;;;;;69.97;38.15;;;;;;;-1.61;100.00;100854.66;5005793;28;20144;-75
2022/12/14 02:00:43;;;;;;;73.15;40.53;;;;;;;-1.68;100.00;100849.97;5003202;28;21035;-75
2022/12/14 02:03:19;;;;;;;70.53;41.45;;;;;;;-1.92;100.00;100858.03;5004583;28;20037;-76
2022/12/14 02:05:50;;;;;;;77.93;45.10;;;;;;;-2.07;100.00;100831.47;5007099;28;20049;-77
2022/12/14 02:08:17;;;;;;;60.42;33.80;;;;;;;-2.01;100.00;100871.28;5001869;28;20108;-76
2022/12/14 02:10:44;;;;;;;62.90;38.42;;;;;;;-2.48;100.00;100820.56;4999140;28;20726;-76
2022/12/14 02:13:26;;;;;;;67.47;38.53;;;;;;;-2.18;100.00;100872.88;5003498;28;20050;-77
2022/12/14 02:15:52;;;;;;;56.22;34.05;;;;;;;-2.99;100.00;100727.69;5002490;28;20088;-79
2022/12/14 02:18:24;;;;;;;67.68;35.63;;;;;;;-2.01;100.00;100861.00;5007754;28;20050;-77
2022/12/14 02:20:49;;;;;;;66.47;37.78;;;;;;;-1.88;100.00;100890.84;5003551;28;20092;-76
2022/12/14 02:23:15;;;;;;;61.17;35.17;;;;;;;-1.97;100.00;100882.59;5003309;28;20050;-77
2022/12/14 02:25:49;;;;;;;56.35;35.33;;;;;;;-1.94;100.00;100880.25;4999931;28;20053;-75
2022/12/14 02:28:23;;;;;;;60.95;37.63;;;;;;;-1.76;100.00;100878.69;5002577;28;20786;-76
2022/12/14 02:30:56;;;;;;;68.07;35.92;;;;;;;-3.45;100.00;100616.31;5003715;28;20073;-77
2022/12/14 02:33:42;;;;;;;54.05;35.70;;;;;;;-2.90;100.00;100757.25;5003021;28;20092;-79
2022/12/14 02:36:16;;;;;;;68.22;35.67;;;;;;;-2.14;100.00;100891.91;5003994;28;20160;-77
2022/12/14 02:38:48;;;;;;;60.20;33.90;;;;;;;-2.10;100.00;100893.00;5001167;28;20428;-77
2022/12/14 02:41:39;;;;;;;57.53;30.48;;;;;;;-2.64;100.00;100795.66;5005305;28;20464;-76
2022/12/14 02:44:08;;;;;;;63.63;37.08;;;;;;;-2.27;100.00;100902.25;5004849;28;20786;-79
2022/12/14 02:46:50;;;;;;;60.40;35.72;;;;;;;-2.76;100.00;100784.66;4995235;28;20053;-77
2022/12/14 02:49:47;;;;;;;58.43;34.87;;;;;;;-2.40;100.00;100877.53;4999934;28;20038;-76
2022/12/14 02:52:12;;;;;;;60.85;32.30;;;;;;;-2.37;100.00;100888.88;5001913;28;20468;-76
2022/12/14 02:54:49;;;;;;;61.15;33.38;;;;;;;-3.10;100.00;100726.16;4999802;28;20446;-78
2022/12/14 02:57:35;;;;;;;61.47;33.47;;;;;;;-3.26;100.00;100729.50;5002261;28;20023;-76
2022/12/14 03:00:03;;;;;;;62.53;36.67;;;;;;;-2.38;100.00;100874.25;5003758;28;20042;-76
2022/12/14 03:02:33;;;;;;;56.00;33.58;;;;;;;-3.38;100.00;100715.94;5001583;28;20041;-77
2022/12/14 03:04:58;;;;;;;60.88;37.97;;;;;;;-2.47;100.00;100868.56;5004641;28;20056;-76
2022/12/14 03:07:32;;;;;;;68.82;38.40;;;;;;;-2.38;100.00;100874.25;5001843;28;20038;-75
2022/12/14 03:10:10;;;;;;;58.60;31.25;;;;;;;-2.31;100.00;100865.25;5004182;28;20077;-76
2022/12/14 03:12:40;;;;;;;58.53;32.97;;;;;;;-3.27;100.00;100721.72;4998777;28;20097;-76
2022/12/14 03:15:10;;;;;;;58.70;31.52;;;;;;;-2.23;100.00;100864.00;5005741;28;20042;-75
2022/12/14 03:17:38;;;;;;;53.65;36.20;;;;;;;-2.48;100.00;100838.56;5002291;28;20045;-75
2022/12/14 03:20:12;;;;;;;66.30;33.55;;;;;;;-2.07;100.00;100885.47;5004342;28;20045;-75
2022/12/14 03:23:01;;;;;;;64.28;34.72;;;;;;;-2.38;100.00;100886.22;5001074;28;20553;-74
2022/12/14 03:25:44;;;;;;;61.83;34.60;;;;;;;-1.93;100.00;100900.00;5004370;28;20509;-74
2022/12/14 03:28:17;;;;;;;54.58;34.25;;;;;;;-2.15;100.00;100893.59;5003949;28;20058;-75
2022/12/14 03:30:49;;;;;;;49.17;31.98;;;;;;;-2.31;100.00;100900.34;5000673;28;20125;-76
2022/12/14 03:33:18;;;;;;;54.90;30.73;;;;;;;-2.50;100.00;100872.66;4996961;28;20053;-76
2022/12/14 03:36:02;;;;;;;53.75;28.63;;;;;;;-2.38;100.00;100869.13;5001983;28;20060;-75
2022/12/14 03:38:41;;;;;;;;;;;;;;;-1.79;100.00;100908.50;5001111;28;20038;-74
2022/12/14 03:41:29;;;;;;;57.22;29.90;;;;;;;-2.71;100.00;100787.50;4999739;28;19933;-79
2022/12/14 03:44:18;;;;;;;54.97;31.50;;;;;;;-2.24;100.00;100902.47;5002337;28;20057;-77
2022/12/14 03:47:01;;;;;;;51.45;28.13;;;;;;;-2.26;100.00;100861.25;4995663;28;20811;-75
2022/12/14 03:50:04;;;;;;;57.92;30.75;;;;;;;-2.40;100.00;100883.56;5002330;28;20049;-77
2022/12/14 03:52:44;;;;;;;53.15;29.92;;;;;;;-2.45;100.00;100890.09;5009777;28;20109;-77
2022/12/14 03:55:21;;;;;;;52.25;34.08;;;;;;;-2.56;100.00;100889.44;5000029;28;20053;-76
2022/12/14 03:58:02;;;;;;;52.92;29.58;;;;;;;-2.59;100.00;100893.53;4999373;28;20077;-77
2022/12/14 04:00:34;;;;;;;50.58;30.10;;;;;;;-2.70;100.00;100858.59;5001302;28;20038;-75
2022/12/14 04:03:11;;;;;;;64.85;33.38;;;;;;;-2.39;100.00;100900.78;5004193;28;20034;-77
2022/12/14 04:06:07;;;;;;;58.22;33.83;;;;;;;-2.01;100.00;100898.69;5000523;28;20156;-77
2022/12/14 04:08:46;;;;;;;59.58;37.28;;;;;;;-2.37;100.00;100786.09;4995434;28;20060;-76
2022/12/14 04:20:03;;;;;;;56.85;32.25;;;;;;;-2.41;100.00;100840.69;5000383;28;20104;-77
2022/12/14 04:22:34;;;;;;;53.05;30.50;;;;;;;-2.34;100.00;100831.66;5002062;28;20045;-77
2022/12/14 04:28:04;;;;;;;57.28;30.30;;;;;;;-2.38;100.00;100855.41;5002392;28;20140;-76
2022/12/14 04:30:36;;;;;;;59.30;31.92;;;;;;;-2.26;100.00;100835.53;4997772;28;20038;-77
2022/12/14 04:35:54;;;;;;;50.38;33.47;;;;;;;-2.85;100.00;100733.66;5003074;28;20064;-76
2022/12/14 04:38:27;;;;;;;64.60;32.60;;;;;;;-3.02;100.00;100695.81;5032214;28;20412;-77
2022/12/14 04:40:56;;;;;;;46.25;28.83;;;;;;;-1.96;100.00;100867.28;4998688;28;20085;-77
2022/12/14 04:43:37;;;;;;;52.53;28.92;;;;;;;-2.70;100.00;100730.19;5005039;28;20493;-79
2022/12/14 04:46:08;;;;;;;51.58;30.58;;;;;;;-1.65;100.00;100851.00;5001681;28;20143;-77
2022/12/14 04:49:01;;;;;;;62.20;33.65;;;;;;;-1.60;100.00;100846.13;5001907;28;20030;-77
2022/12/14 04:52:06;;;;;;;44.60;26.48;;;;;;;-1.49;100.00;100847.59;5003084;28;20060;-77
2022/12/14 04:54:54;;;;;;;;;;;;;;;-1.40;100.00;100845.53;5004857;28;20052;-77
2022/12/14 04:57:27;;;;;;;48.97;27.98;;;;;;;-1.53;100.00;100797.66;5001445;28;20028;-78
2022/12/14 04:59:53;;;;;;;48.80;28.13;;;;;;;-1.27;100.00;100841.94;5000171;28;20034;-77
2022/12/14 05:02:45;;;;;;;46.38;28.00;;;;;;;-1.18;100.00;100855.31;5001527;28;20054;-76
2022/12/14 05:05:17;;;;;;;51.55;26.75;;;;;;;-1.51;100.00;100798.63;4977141;28;20057;-76
2022/12/14 05:08:06;;;;;;;43.90;28.70;;;;;;;-1.19;100.00;100850.09;5001851;28;20038;-77
2022/12/14 05:10:52;;;;;;;42.15;25.67;;;;;;;-1.28;100.00;100861.66;5001175;28;20510;-76
2022/12/14 05:13:31;;;;;;;47.05;28.98;;;;;;;-1.15;100.00;100846.88;5007113;28;20046;-76
2022/12/14 05:15:58;;;;;;;54.28;33.97;;;;;;;-1.13;100.00;100853.88;5003185;28;20057;-76
2022/12/14 05:18:24;;;;;;;45.53;28.35;;;;;;;-1.86;100.00;100693.81;5023344;28;20121;-77
2022/12/14 05:20:50;;;;;;;60.28;28.95;;;;;;;-1.87;100.00;100706.56;5006062;28;20034;-76
2022/12/14 05:23:16;;;;;;;53.97;26.70;;;;;;;-1.27;100.00;100832.53;5006246;28;20405;-76
2022/12/14 05:25:42;;;;;;;57.05;31.05;;;;;;;-1.44;100.00;100823.00;5003827;28;20087;-76
2022/12/14 05:28:08;;;;;;;39.90;27.70;;;;;;;-1.87;100.00;100697.19;5002392;28;20494;-75
2022/12/14 05:30:34;;;;;;;48.58;30.23;;;;;;;-1.60;100.00;100736.38;5004506;28;20883;-75
2022/12/14 05:32:59;;;;;;;50.92;27.17;;;;;;;-0.99;100.00;100817.69;5006729;28;20045;-76
2022/12/14 05:35:25;;;;;;;48.42;25.77;;;;;;;-0.92;100.00;100841.25;5003130;28;20046;-75
2022/12/14 05:37:50;;;;;;;48.60;27.80;;;;;;;-1.00;100.00;100837.41;5007505;28;20045;-76
2022/12/14 05:40:16;;;;;;;55.75;28.80;;;;;;;-0.89;100.00;100832.78;5001920;28;20497;-76
2022/12/14 05:42:42;;;;;;;52.05;26.45;;;;;;;-1.49;100.00;100732.69;5000306;28;20759;-76
2022/12/14 05:45:10;;;;;;;45.35;24.83;;;;;;;-0.64;100.00;100859.03;4999781;28;20067;-76
2022/12/14 05:47:35;;;;;;;65.55;26.95;;;;;;;-0.94;100.00;100835.13;5000053;28;23444;-76
2022/12/14 05:50:01;;;;;;;41.92;27.38;;;;;;;-0.81;100.00;100849.56;5004225;28;20417;-78
2022/12/14 05:52:26;;;;;;;40.30;26.27;;;;;;;-0.74;100.00;100831.03;5001974;28;20046;-75
2022/12/14 05:54:52;;;;;;;55.63;29.58;;;;;;;-0.91;100.00;100873.94;5004046;28;20058;-75
2022/12/14 05:57:18;;;;;;;48.72;25.35;;;;;;;-1.59;100.00;100699.56;5007057;28;20053;-76
2022/12/14 05:59:45;;;;;;;43.22;25.00;;;;;;;-1.45;100.00;100738.00;5007404;28;20099;-76
2022/12/14 06:02:10;;;;;;;46.10;26.38;;;;;;;-1.45;100.00;100799.75;4999562;28;20049;-77
2022/12/14 06:04:36;;;;;;;44.28;26.40;;;;;;;-1.11;100.00;100859.09;5003136;28;20042;-76
2022/12/14 06:07:02;;;;;;;44.85;28.30;;;;;;;-1.74;100.00;100720.19;5004182;28;20158;-77
2022/12/14 06:09:27;;;;;;;60.00;30.40;;;;;;;-2.41;100.00;100737.00;4999199;28;20827;-74
2022/12/14 06:11:53;;;;;;;51.10;28.05;;;;;;;-1.99;100.00;100822.50;5000471;28;20036;-74
2022/12/14 06:14:19;;;;;;;40.70;26.20;;;;;;;-2.12;100.00;100811.53;4996038;28;20045;-77
2022/12/14 06:16:46;;;;;;;55.15;28.73;;;;;;;-1.39;100.00;100870.47;5004085;28;20081;-79
2022/12/14 06:19:13;;;;;;;61.35;33.67;;;;;;;-1.32;100.00;100831.38;5003300;28;20124;-77
2022/12/14 06:21:40;;;;;;;45.75;27.23;;;;;;;-2.15;100.00;100766.78;4999648;28;20133;-76
2022/12/14 06:24:07;;;;;;;55.00;28.63;;;;;;;-1.74;100.00;100840.19;5006486;28;20112;-75
2022/12/14 06:26:39;;;;;;;51.28;29.25;;;;;;;-1.47;100.00;100828.00;4997587;28;20133;-75
2022/12/14 06:29:05;;;;;;;55.72;29.88;;;;;;;-1.75;100.00;100721.00;5000180;28;20053;-78
2022/12/14 06:31:32;;;;;;;61.70;33.63;;;;;;;-1.14;100.00;100836.66;4996533;28;20042;-77
2022/12/14 06:33:59;;;;;;;50.33;32.65;;;;;;;-1.66;100.00;100724.84;4994695;28;20450;-78
2022/12/14 06:36:33;;;;;;;62.10;29.55;;;;;;;-1.41;100.00;100730.53;4992822;28;20058;-73
2022/12/14 06:39:33;;;;;;;58.90;28.08;;;;;;;-1.22;100.00;100873.97;5004737;28;20565;-76
2022/12/14 06:42:14;;;;;;;61.58;32.83;;;;;;;-1.35;100.00;100791.75;4998896;28;20488;-79
2022/12/14 06:44:41;;;;;;;52.53;30.58;;;;;;;-1.41;100.00;100732.22;4988141;28;20050;-77
2022/12/14 06:47:08;;;;;;;49.78;29.55;;;;;;;-1.81;100.00;100712.06;4993322;28;20160;-72
2022/12/14 06:49:33;;;;;;;39.97;25.40;;;;;;;-1.37;100.00;100845.69;4991805;28;20050;-74
2022/12/14 06:51:58;;;;;;;76.97;30.83;;;;;;;-1.77;100.00;100853.78;4988812;28;20791;-74
2022/12/14 06:54:24;;;;;;;61.60;29.08;;;;;;;-1.18;100.00;100836.41;4994599;28;20072;-75
2022/12/14 06:56:50;;;;;;;55.35;27.35;;;;;;;-2.40;100.00;100739.66;4992365;28;20472;-73
2022/12/14 06:59:16;;;;;;;68.10;39.97;;;;;;;-1.68;100.00;100838.00;4997249;28;20794;-75
2022/12/14 07:01:42;;;;;;;47.50;27.70;;;;;;;-2.70;100.00;100723.38;5000872;28;20111;-75
2022/12/14 07:04:08;;;;;;;68.28;36.80;;;;;;;-2.24;100.00;100785.13;4997063;28;20408;-75
2022/12/14 07:06:37;;;;;;;50.72;29.48;;;;;;;-1.62;100.00;100883.75;5001647;28;20041;-75
2022/12/14 07:09:04;;;;;;;53.63;28.17;;;;;;;-1.74;100.00;100887.38;5003122;28;20040;-76
2022/12/14 07:11:30;;;;;;;81.43;35.78;;;;;;;-2.44;100.00;100765.09;4997413;28;20061;-75
2022/12/14 07:13:56;;;;;;;49.38;28.63;;;;;;;-2.40;100.00;100760.22;4999362;28;20076;-74
2022/12/14 07:16:24;;;;;;;61.97;30.60;;;;;;;-1.79;100.00;100893.06;4998747;28;20088;-76
2022/12/14 07:18:52;;;;;;;68.50;30.17;;;;;;;-1.53;100.00;100887.72;4997959;28;20115;-75
2022/12/14 07:21:19;;;;;;;48.30;28.27;;;;;;;-1.72;100.00;100866.91;5000384;28;20140;-73
2022/12/14 07:23:46;;;;;;;47.92;30.05;;;;;;;-2.49;100.00;100766.53;4995521;28;20544;-74
2022/12/14 07:26:17;;;;;;;52.13;30.00;;;;;;;-1.86;100.00;100880.66;5000935;28;20049;-76
2022/12/14 07:28:44;;;;;;;104.20;31.25;;;;;;;-1.88;100.00;100860.00;4993975;28;20042;-74
2022/12/14 07:31:13;;;;;;;65.78;32.78;;;;;;;-1.62;100.00;100870.88;4999758;28;20081;-73
2022/12/14 07:33:38;;;;;;;47.80;28.55;;;;;;;-1.37;100.00;100911.75;4997418;28;20193;-73
2022/12/14 07:36:05;;;;;;;51.20;26.25;;;;;;;-1.51;100.00;100898.97;5002762;28;20050;-74
2022/12/14 07:38:32;;;;;;;62.70;29.20;;;;;;;-2.14;100.00;100754.00;4997486;28;20054;-74
2022/12/14 07:41:22;;;;;;;51.72;26.50;;;;;;;-1.05;100.00;100905.81;5000389;28;20057;-74
2022/12/14 07:43:48;;;;;;;42.67;26.02;;;;;;;-1.13;100.00;100901.91;4986923;28;20047;-73
2022/12/14 07:46:19;;;;;;;48.60;31.00;;;;;;;-1.56;100.00;100782.06;5000447;28;20450;-74
2022/12/14 07:48:47;;;;;;;43.80;25.33;;;;;;;-1.40;100.00;100811.22;5000819;28;20050;-76
2022/12/14 07:51:15;;;;;;;46.28;26.95;;;;;;;-1.90;100.00;100751.00;5003487;28;20108;-75
2022/12/14 07:53:41;;;;;;;49.22;29.23;;;;;;;-0.92;100.00;100874.72;5000997;28;20057;-75
2022/12/14 07:56:13;;;;;;;48.85;24.27;;;;;;;-0.89;100.00;100908.41;5000878;28;20108;-74
2022/12/14 07:58:39;;;;;;;69.63;26.20;;;;;;;-0.80;100.00;100896.81;5000057;28;20049;-74
2022/12/14 08:01:10;;;;;;;35.15;20.13;;;;;;;-1.01;100.00;100912.00;5002757;28;20444;-74
2022/12/14 08:03:36;;;;;;;57.97;25.70;;;;;;;-1.04;100.00;100857.75;5001676;28;20393;-75
2022/12/14 08:06:06;;;;;;;41.22;24.83;;;;;;;-1.49;100.00;100747.25;5002095;28;20044;-75
2022/12/14 08:08:33;;;;;;;55.63;24.08;;;;;;;-0.74;100.00;100904.88;5001313;28;20042;-75
2022/12/14 08:10:59;;;;;;;51.85;27.63;;;;;;;-1.49;100.00;100736.97;5002166;28;20535;-73
2022/12/14 08:13:24;;;;;;;42.03;22.52;;;;;;;-1.55;100.00;100742.66;5001711;28;20057;-74
2022/12/14 08:15:50;;;;;;;41.83;24.08;;;;;;;-0.77;100.00;100878.94;5000494;28;20054;-74
2022/12/14 08:18:15;;;;;;;47.08;24.23;;;;;;;-0.81;100.00;100866.72;5032558;28;20064;-74
2022/12/14 08:20:41;;;;;;;44.35;25.98;;;;;;;-0.45;100.00;100889.22;5005467;28;20072;-74
2022/12/14 08:23:06;;;;;;;54.13;22.30;;;;;;;-0.48;100.00;100894.25;5000869;28;20046;-73
2022/12/14 08:25:31;;;;;;;40.38;23.15;;;;;;;-0.46;100.00;100886.59;5001422;28;20041;-74
2022/12/14 08:27:57;;;;;;;90.88;29.92;;;;;;;-0.36;100.00;100873.34;5005946;28;20060;-73
2022/12/14 08:30:23;;;;;;;45.22;25.42;;;;;;;-0.23;100.00;100886.09;5002630;28;20100;-73
2022/12/14 08:32:48;;;;;;;40.28;24.15;;;;;;;-0.13;100.00;100892.59;5020832;28;20053;-74
2022/12/14 08:35:14;;;;;;;39.53;23.02;;;;;;;-0.88;100.00;100741.84;5001298;28;20077;-73
2022/12/14 08:37:39;;;;;;;47.67;24.75;;;;;;;-0.10;100.00;100877.25;5003403;28;20046;-74
2022/12/14 08:40:05;;;;;;;39.40;22.88;;;;;;;-1.13;100.00;100768.03;4999335;28;20462;-74
2022/12/14 08:42:31;;;;;;;42.75;26.10;;;;;;;-0.82;100.00;100749.91;5002020;28;20062;-73
2022/12/14 08:44:56;;;;;;;43.35;21.67;;;;;;;-0.38;100.00;100877.53;5003304;28;20057;-74
2022/12/14 08:47:22;;;;;;;39.97;23.67;;;;;;;-0.97;100.00;100721.66;4996518;28;20034;-74
2022/12/14 08:49:47;;;;;;;36.10;21.20;;;;;;;-0.34;100.00;100869.19;4997265;28;20029;-74
2022/12/14 08:52:13;;;;;;;45.30;23.30;;;;;;;-0.18;100.00;100857.94;5002392;28;20037;-73
2022/12/14 08:54:38;;;;;;;40.75;23.20;;;;;;;0.07;100.00;100867.81;5001473;28;20050;-73
2022/12/14 08:57:04;;;;;;;44.33;23.05;;;;;;;-0.49;100.00;100706.03;5001548;28;20615;-74
2022/12/14 08:59:29;;;;;;;33.80;21.08;;;;;;;0.11;100.00;100854.22;5000932;28;20440;-74
2022/12/14 09:01:54;;;;;;;39.47;19.85;;;;;;;0.06;100.00;100832.47;5004305;28;20425;-73
2022/12/14 09:04:20;;;;;;;43.15;23.70;;;;;;;-0.27;100.00;100736.31;5005207;28;20070;-73
2022/12/14 09:06:45;;;;;;;36.63;22.60;;;;;;;0.50;100.00;100800.19;5014061;28;20050;-74
2022/12/14 09:09:11;;;;;;;32.33;18.67;;;;;;;0.14;100.00;100831.19;5014829;28;20081;-73
2022/12/14 09:11:36;;;;;;;32.33;18.88;;;;;;;-0.29;100.00;100684.66;5004461;28;20053;-73
2022/12/14 09:14:02;;;;;;;31.23;19.70;;;;;;;0.24;100.00;100804.13;5003061;28;20041;-74
2022/12/14 09:16:27;;;;;;;43.95;23.95;;;;;;;0.32;100.00;100838.03;5004409;28;20052;-73
2022/12/14 09:18:53;;;;;;;45.28;21.73;;;;;;;0.80;100.00;100841.16;5002176;28;20137;-74
2022/12/14 09:21:19;;;;;;;34.63;21.50;;;;;;;0.76;100.00;100831.50;5004615;28;20101;-74
2022/12/14 09:23:45;;;;;;;37.33;24.55;;;;;;;0.56;100.00;100699.78;5003693;28;20168;-74
2022/12/14 09:26:12;;;;;;;30.27;19.42;;;;;;;1.41;100.00;100810.28;5000605;28;20073;-74
2022/12/14 09:28:40;;;;;;;33.15;20.08;;;;;;;1.27;100.00;100788.13;5002777;28;20056;-73
2022/12/14 09:31:11;;;;;;;33.67;20.58;;;;;;;0.89;100.00;100655.59;4999807;28;20103;-74
2022/12/14 09:33:37;;;;;;;33.10;20.77;;;;;;;1.75;100.00;100787.56;5000106;28;20041;-73
2022/12/14 09:36:09;;;;;;;37.88;23.95;;;;;;;1.52;100.00;100735.75;4999908;28;20058;-73
2022/12/14 09:38:36;;;;;;;39.80;22.33;;;;;;;1.39;100.00;100767.09;5000859;28;20045;-74
2022/12/14 09:41:06;;;;;;;35.67;20.10;;;;;;;1.57;100.00;100754.94;4999936;28;20198;-74
2022/12/14 09:43:34;;;;;;;38.20;21.10;;;;;;;1.75;100.00;100753.94;5002515;28;20069;-73
2022/12/14 09:46:09;;;;;;;34.15;20.45;;;;;;;1.98;100.00;100780.75;5001419;28;20081;-73
2022/12/14 09:48:35;;;;;;;41.25;20.73;;;;;;;1.15;100.00;100645.47;4995851;28;20046;-73
2022/12/14 09:51:01;;;;;;;30.20;18.38;;;;;;;2.03;100.00;100774.03;5000021;28;20046;-75
2022/12/14 09:53:28;;;;;;;31.33;21.08;;;;;;;2.22;100.00;100767.88;4997149;28;20041;-75
2022/12/14 09:55:56;;;;;;;31.98;17.85;;;;;;;1.95;100.00;100731.47;5031077;28;20052;-75
2022/12/14 09:58:25;;;;;;;29.00;17.98;;;;;;;2.12;100.00;100784.75;5002987;28;20041;-74
2022/12/14 10:01:29;;;;;;;30.38;17.83;;;;;;;1.92;100.00;100763.28;5005192;28;20038;-74
2022/12/14 10:04:12;;;;;;;34.67;19.67;;;;;;;1.35;100.00;100786.75;5004307;28;20077;-74
2022/12/14 10:06:54;;;;;;;65.10;23.33;;;;;;;1.88;100.00;100751.91;5003299;28;20595;-74
2022/12/14 10:09:41;;;;;;;36.63;17.60;;;;;;;1.65;100.00;100699.22;5004027;28;20052;-74
2022/12/14 10:12:06;;;;;;;49.85;20.85;;;;;;;2.03;100.00;100745.56;5002077;28;20060;-74
2022/12/14 10:14:50;;;;;;;46.83;20.05;;;;;;;2.20;100.00;100757.50;5003406;28;20042;-74
2022/12/14 10:17:37;;;;;;;29.83;16.15;;;;;;;2.30;100.00;100748.38;5004277;28;20596;-74
2022/12/14 10:20:28;;;;;;;34.60;19.00;;;;;;;2.21;100.00;100735.94;5003940;28;20744;-75
2022/12/14 10:22:55;;;;;;;33.65;18.90;;;;;;;1.62;100.00;100711.19;5005162;28;20386;-74
2022/12/14 10:25:26;;;;;;;31.15;17.52;;;;;;;1.62;100.00;100631.00;5003158;28;20114;-73
2022/12/14 10:28:30;;;;;;;26.98;18.02;;;;;;;2.18;100.00;100735.84;5001540;28;20068;-73
2022/12/14 10:30:59;;;;;;;31.33;19.30;;;;;;;2.05;100.00;100739.63;4998014;28;20088;-74
2022/12/14 10:33:30;;;;;;;29.40;18.73;;;;;;;1.01;100.00;100612.19;4994555;28;20056;-73
2022/12/14 10:36:33;;;;;;;33.50;18.33;;;;;;;2.31;100.00;100729.41;4994899;28;20314;-74
2022/12/14 10:39:01;;;;;;;26.95;17.65;;;;;;;1.31;100.00;100615.94;4995875;28;20053;-73
2022/12/14 10:41:53;;;;;;;47.47;19.73;;;;;;;2.33;100.00;100699.28;4997829;28;20122;-74
2022/12/14 10:44:57;;;;;;;37.90;19.73;;;;;;;2.33;100.00;100705.34;4997659;28;20046;-73
2022/12/14 10:47:37;;;;;;;32.67;18.88;;;;;;;1.06;100.00;100552.94;4998468;28;20505;-74
2022/12/14 10:50:23;;;;;;;26.60;17.65;;;;;;;1.58;100.00;100720.50;5001225;28;20080;-74
2022/12/14 10:52:52;;;;;;;31.88;18.60;;;;;;;2.31;100.00;100712.16;4998177;28;20069;-74
2022/12/14 10:55:32;;;;;;;30.70;18.33;;;;;;;2.66;100.00;100717.78;5000223;28;20057;-73
2022/12/14 10:57:58;;;;;;;41.58;20.27;;;;;;;2.80;100.00;100717.41;4998850;28;20037;-74
2022/12/14 11:00:23;;;;;;;30.90;18.02;;;;;;;1.19;100.00;100603.41;5001354;28;20050;-73
2022/12/14 11:02:53;;;;;;;29.15;19.25;;;;;;;1.90;100.00;100732.16;4997778;28;20464;-74
2022/12/14 11:05:27;;;;;;;33.92;21.02;;;;;;;2.04;100.00;100727.53;4996628;28;20058;-73
2022/12/14 11:07:54;;;;;;;39.92;22.20;;;;;;;1.64;100.00;100730.22;4999212;28;20054;-75
2022/12/14 11:10:22;;;;;;;30.23;18.92;;;;;;;1.50;100.00;100732.25;4998277;28;20346;-73
2022/12/14 11:13:15;;;;;;;35.08;20.02;;;;;;;1.69;100.00;100719.25;4999624;28;20048;-74
2022/12/14 11:15:46;;;;;;;29.85;17.70;;;;;;;2.34;100.00;100721.75;4999877;28;20092;-74
2022/12/14 11:18:14;;;;;;;45.17;18.88;;;;;;;2.59;100.00;100733.94;5006042;28;20042;-73
2022/12/14 11:21:01;;;;;;;28.05;18.98;;;;;;;1.74;100.00;100727.19;5005131;28;20053;-75
2022/12/14 11:23:29;;;;;;;35.28;20.42;;;;;;;1.30;100.00;100726.22;5005104;28;20063;-75
2022/12/14 11:26:01;;;;;;;40.67;20.08;;;;;;;1.48;100.00;100697.69;5003837;28;20050;-74
2022/12/14 11:28:38;;;;;;;31.05;17.77;;;;;;;0.88;100.00;100565.97;5002411;28;20038;-75
2022/12/14 11:31:10;;;;;;;32.15;19.88;;;;;;;1.54;100.00;100642.72;5000561;28;20121;-75
2022/12/14 11:33:47;;;;;;;37.42;21.73;;;;;;;0.91;100.00;100519.59;5003106;28;20104;-74
2022/12/14 11:36:27;;;;;;;31.58;19.50;;;;;;;1.87;100.00;100653.50;5002299;28;20085;-75
2022/12/14 11:39:19;;;;;;;31.33;17.27;;;;;;;1.85;100.00;100681.94;4962170;28;20142;-75